sensor_id;sensor_type;location;lat;lon;timestamp;P1;durP1;ratioP1;P2;durP2;ratioP2
16039;SDS011;8124;48.634;8.120;2022-08-19T00:04:48;50.13;;;45.03;;
16039;SDS011;8124;48.634;8.120;2022-08-19T00:09:55;49.47;;;44.50;;
16039;SDS011;8124;48.634;8.120;2022-08-19T00:14:58;51.33;;;46.13;;
16039;SDS011;8124;48.634;8.120;2022-08-19T00:20:01;52.67;;;47.38;;
16039;SDS011;8124;48.634;8.120;2022-08-19T00:25:07;52.63;;;47.17;;
16039;SDS011;8124;48.634;8.120;2022-08-19T00:30:11;52.28;;;46.88;;
16039;SDS011;8124;48.634;8.120;2022-08-19T00:35:14;52.03;;;46.72;;
16039;SDS011;8124;48.634;8.120;2022-08-19T00:40:20;50.92;;;45.72;;
16039;SDS011;8124;48.634;8.120;2022-08-19T00:45:28;51.30;;;46.03;;
16039;SDS011;8124;48.634;8.120;2022-08-19T00:50:36;51.72;;;46.42;;
16039;SDS011;8124;48.634;8.120;2022-08-19T00:55:54;49.80;;;44.70;;
16039;SDS011;8124;48.634;8.120;2022-08-19T01:01:00;51.92;;;46.65;;
16039;SDS011;8124;48.634;8.120;2022-08-19T01:06:03;52.17;;;46.85;;
16039;SDS011;8124;48.634;8.120;2022-08-19T01:11:09;51.38;;;46.08;;
16039;SDS011;8124;48.634;8.120;2022-08-19T01:16:12;53.90;;;48.20;;
16039;SDS011;8124;48.634;8.120;2022-08-19T01:21:18;53.25;;;47.90;;
16039;SDS011;8124;48.634;8.120;2022-08-19T01:26:28;53.45;;;47.75;;
16039;SDS011;8124;48.634;8.120;2022-08-19T01:31:32;52.83;;;47.45;;
16039;SDS011;8124;48.634;8.120;2022-08-19T01:36:37;53.25;;;47.83;;
16039;SDS011;8124;48.634;8.120;2022-08-19T01:41:44;52.25;;;46.90;;
16039;SDS011;8124;48.634;8.120;2022-08-19T01:46:47;51.88;;;46.60;;
16039;SDS011;8124;48.634;8.120;2022-08-19T01:51:56;51.33;;;46.13;;
16039;SDS011;8124;48.634;8.120;2022-08-19T01:57:03;51.42;;;46.13;;
16039;SDS011;8124;48.634;8.120;2022-08-19T02:02:08;53.17;;;47.70;;
16039;SDS011;8124;48.634;8.120;2022-08-19T02:07:11;53.38;;;47.83;;
16039;SDS011;8124;48.634;8.120;2022-08-19T02:12:16;54.58;;;48.78;;
16039;SDS011;8124;48.634;8.120;2022-08-19T02:17:19;54.45;;;48.75;;
16039;SDS011;8124;48.634;8.120;2022-08-19T02:22:22;54.38;;;48.67;;
16039;SDS011;8124;48.634;8.120;2022-08-19T02:27:27;52.78;;;47.28;;
16039;SDS011;8124;48.634;8.120;2022-08-19T02:32:31;54.10;;;48.60;;
16039;SDS011;8124;48.634;8.120;2022-08-19T02:37:44;53.83;;;48.22;;
16039;SDS011;8124;48.634;8.120;2022-08-19T02:43:06;51.75;;;46.33;;
16039;SDS011;8124;48.634;8.120;2022-08-19T02:48:10;50.53;;;45.33;;
16039;SDS011;8124;48.634;8.120;2022-08-19T02:53:22;53.90;;;48.30;;
16039;SDS011;8124;48.634;8.120;2022-08-19T02:58:29;53.25;;;47.80;;
16039;SDS011;8124;48.634;8.120;2022-08-19T03:03:32;50.78;;;45.58;;
16039;SDS011;8124;48.634;8.120;2022-08-19T03:08:36;52.05;;;46.75;;
16039;SDS011;8124;48.634;8.120;2022-08-19T03:13:41;54.47;;;48.75;;
16039;SDS011;8124;48.634;8.120;2022-08-19T03:18:45;52.67;;;47.22;;
16039;SDS011;8124;48.634;8.120;2022-08-19T03:23:48;54.15;;;48.35;;
16039;SDS011;8124;48.634;8.120;2022-08-19T03:28:52;49.15;;;44.15;;
16039;SDS011;8124;48.634;8.120;2022-08-19T03:33:59;53.28;;;47.78;;
16039;SDS011;8124;48.634;8.120;2022-08-19T03:39:04;53.40;;;47.90;;
16039;SDS011;8124;48.634;8.120;2022-08-19T03:44:10;54.10;;;48.45;;
16039;SDS011;8124;48.634;8.120;2022-08-19T03:49:19;53.15;;;47.75;;
16039;SDS011;8124;48.634;8.120;2022-08-19T03:54:28;52.83;;;47.42;;
16039;SDS011;8124;48.634;8.120;2022-08-19T03:59:34;52.30;;;46.90;;
16039;SDS011;8124;48.634;8.120;2022-08-19T04:04:38;53.67;;;48.05;;
16039;SDS011;8124;48.634;8.120;2022-08-19T04:09:45;53.33;;;47.83;;
16039;SDS011;8124;48.634;8.120;2022-08-19T04:14:49;51.45;;;46.05;;
16039;SDS011;8124;48.634;8.120;2022-08-19T04:19:52;55.67;;;49.88;;
16039;SDS011;8124;48.634;8.120;2022-08-19T04:24:55;49.63;;;44.53;;
16039;SDS011;8124;48.634;8.120;2022-08-19T04:29:59;52.85;;;47.28;;
16039;SDS011;8124;48.634;8.120;2022-08-19T04:35:02;50.88;;;45.78;;
16039;SDS011;8124;48.634;8.120;2022-08-19T04:40:18;53.45;;;47.80;;
16039;SDS011;8124;48.634;8.120;2022-08-19T04:45:41;48.50;;;43.60;;
16039;SDS011;8124;48.634;8.120;2022-08-19T04:50:44;48.88;;;43.78;;
16039;SDS011;8124;48.634;8.120;2022-08-19T04:55:47;53.13;;;47.65;;
16039;SDS011;8124;48.634;8.120;2022-08-19T05:00:52;51.83;;;46.53;;
16039;SDS011;8124;48.634;8.120;2022-08-19T05:05:55;54.15;;;48.55;;
16039;SDS011;8124;48.634;8.120;2022-08-19T05:10:58;54.85;;;49.17;;
16039;SDS011;8124;48.634;8.120;2022-08-19T05:16:03;54.90;;;49.05;;
16039;SDS011;8124;48.634;8.120;2022-08-19T05:21:07;55.22;;;49.53;;
16039;SDS011;8124;48.634;8.120;2022-08-19T05:26:28;53.75;;;48.05;;
16039;SDS011;8124;48.634;8.120;2022-08-19T05:31:32;55.95;;;50.05;;
16039;SDS011;8124;48.634;8.120;2022-08-19T05:36:42;52.80;;;47.35;;
16039;SDS011;8124;48.634;8.120;2022-08-19T05:41:47;54.42;;;48.72;;
16039;SDS011;8124;48.634;8.120;2022-08-19T05:46:55;56.08;;;50.25;;
16039;SDS011;8124;48.634;8.120;2022-08-19T05:52:01;55.88;;;49.92;;
16039;SDS011;8124;48.634;8.120;2022-08-19T05:57:06;55.72;;;49.83;;
16039;SDS011;8124;48.634;8.120;2022-08-19T06:02:15;56.33;;;50.47;;
16039;SDS011;8124;48.634;8.120;2022-08-19T06:07:18;56.03;;;50.10;;
16039;SDS011;8124;48.634;8.120;2022-08-19T06:12:21;55.90;;;50.03;;
16039;SDS011;8124;48.634;8.120;2022-08-19T06:17:33;56.00;;;50.00;;
16039;SDS011;8124;48.634;8.120;2022-08-19T06:22:37;57.47;;;51.53;;
16039;SDS011;8124;48.634;8.120;2022-08-19T06:27:41;56.83;;;50.72;;
16039;SDS011;8124;48.634;8.120;2022-08-19T06:33:05;58.22;;;51.25;;
16039;SDS011;8124;48.634;8.120;2022-08-19T06:38:08;57.58;;;51.53;;
16039;SDS011;8124;48.634;8.120;2022-08-19T06:43:11;57.72;;;51.63;;
16039;SDS011;8124;48.634;8.120;2022-08-19T06:48:20;58.47;;;52.28;;
16039;SDS011;8124;48.634;8.120;2022-08-19T06:53:26;58.63;;;52.42;;
16039;SDS011;8124;48.634;8.120;2022-08-19T06:58:30;58.60;;;52.30;;
16039;SDS011;8124;48.634;8.120;2022-08-19T07:03:36;58.35;;;52.13;;
16039;SDS011;8124;48.634;8.120;2022-08-19T07:08:40;59.50;;;53.03;;
16039;SDS011;8124;48.634;8.120;2022-08-19T07:13:44;59.50;;;53.15;;
16039;SDS011;8124;48.634;8.120;2022-08-19T07:18:55;58.72;;;52.42;;
16039;SDS011;8124;48.634;8.120;2022-08-19T07:23:59;58.72;;;52.30;;
16039;SDS011;8124;48.634;8.120;2022-08-19T07:29:07;55.00;;;49.15;;
16039;SDS011;8124;48.634;8.120;2022-08-19T07:34:12;58.38;;;52.22;;
16039;SDS011;8124;48.634;8.120;2022-08-19T07:39:18;59.80;;;53.28;;
16039;SDS011;8124;48.634;8.120;2022-08-19T07:44:24;60.85;;;54.15;;
16039;SDS011;8124;48.634;8.120;2022-08-19T07:49:29;59.47;;;53.10;;
16039;SDS011;8124;48.634;8.120;2022-08-19T07:54:33;60.20;;;53.60;;
16039;SDS011;8124;48.634;8.120;2022-08-19T07:59:37;59.97;;;53.78;;
16039;SDS011;8124;48.634;8.120;2022-08-19T08:04:42;58.15;;;51.95;;
16039;SDS011;8124;48.634;8.120;2022-08-19T08:10:03;59.63;;;53.40;;
16039;SDS011;8124;48.634;8.120;2022-08-19T08:15:14;61.58;;;53.55;;
16039;SDS011;8124;48.634;8.120;2022-08-19T08:20:21;60.67;;;53.42;;
16039;SDS011;8124;48.634;8.120;2022-08-19T08:25:26;60.88;;;53.90;;
16039;SDS011;8124;48.634;8.120;2022-08-19T08:30:32;60.80;;;54.45;;
16039;SDS011;8124;48.634;8.120;2022-08-19T08:35:39;61.65;;;55.08;;
16039;SDS011;8124;48.634;8.120;2022-08-19T08:40:44;60.50;;;53.97;;
16039;SDS011;8124;48.634;8.120;2022-08-19T08:45:53;61.53;;;54.95;;
16039;SDS011;8124;48.634;8.120;2022-08-19T08:51:03;59.40;;;52.90;;
16039;SDS011;8124;48.634;8.120;2022-08-19T08:56:10;59.97;;;53.80;;
16039;SDS011;8124;48.634;8.120;2022-08-19T09:01:17;59.08;;;52.70;;
16039;SDS011;8124;48.634;8.120;2022-08-19T09:06:25;59.40;;;53.22;;
16039;SDS011;8124;48.634;8.120;2022-08-19T09:11:38;59.95;;;53.53;;
16039;SDS011;8124;48.634;8.120;2022-08-19T09:16:50;60.28;;;53.78;;
16039;SDS011;8124;48.634;8.120;2022-08-19T09:21:55;61.10;;;54.70;;
16039;SDS011;8124;48.634;8.120;2022-08-19T09:26:58;57.58;;;51.42;;
16039;SDS011;8124;48.634;8.120;2022-08-19T09:32:06;60.30;;;53.92;;
16039;SDS011;8124;48.634;8.120;2022-08-19T09:37:28;59.42;;;53.13;;
16039;SDS011;8124;48.634;8.120;2022-08-19T09:42:33;59.45;;;53.00;;
16039;SDS011;8124;48.634;8.120;2022-08-19T09:47:38;60.40;;;53.42;;
16039;SDS011;8124;48.634;8.120;2022-08-19T09:52:42;68.25;;;57.75;;
16039;SDS011;8124;48.634;8.120;2022-08-19T09:57:58;57.30;;;51.30;;
16039;SDS011;8124;48.634;8.120;2022-08-19T10:03:02;57.60;;;51.38;;
16039;SDS011;8124;48.634;8.120;2022-08-19T10:08:08;60.05;;;53.65;;
16039;SDS011;8124;48.634;8.120;2022-08-19T10:13:14;58.15;;;52.03;;
16039;SDS011;8124;48.634;8.120;2022-08-19T10:18:19;56.17;;;50.20;;
16039;SDS011;8124;48.634;8.120;2022-08-19T10:23:24;57.58;;;51.53;;
16039;SDS011;8124;48.634;8.120;2022-08-19T10:28:34;55.80;;;49.95;;
16039;SDS011;8124;48.634;8.120;2022-08-19T10:33:39;57.00;;;51.15;;
16039;SDS011;8124;48.634;8.120;2022-08-19T10:44:04;55.00;;;49.20;;
16039;SDS011;8124;48.634;8.120;2022-08-19T10:49:09;52.33;;;47.03;;
16039;SDS011;8124;48.634;8.120;2022-08-19T10:54:14;51.85;;;46.65;;
16039;SDS011;8124;48.634;8.120;2022-08-19T10:59:33;51.30;;;45.92;;
16039;SDS011;8124;48.634;8.120;2022-08-19T11:04:37;50.47;;;45.08;;
16039;SDS011;8124;48.634;8.120;2022-08-19T11:09:43;50.53;;;45.33;;
16039;SDS011;8124;48.634;8.120;2022-08-19T11:14:47;52.15;;;46.85;;
16039;SDS011;8124;48.634;8.120;2022-08-19T11:19:51;52.03;;;46.58;;
16039;SDS011;8124;48.634;8.120;2022-08-19T11:24:55;51.78;;;46.38;;
16039;SDS011;8124;48.634;8.120;2022-08-19T11:29:58;51.92;;;46.67;;
16039;SDS011;8124;48.634;8.120;2022-08-19T11:35:01;52.97;;;47.58;;
16039;SDS011;8124;48.634;8.120;2022-08-19T11:53:41;53.05;;;47.75;;
16039;SDS011;8124;48.634;8.120;2022-08-19T11:58:44;52.83;;;47.42;;
16039;SDS011;8124;48.634;8.120;2022-08-19T12:03:48;52.78;;;47.17;;
16039;SDS011;8124;48.634;8.120;2022-08-19T12:08:54;52.55;;;47.05;;
16039;SDS011;8124;48.634;8.120;2022-08-19T12:13:57;53.70;;;48.30;;
16039;SDS011;8124;48.634;8.120;2022-08-19T12:19:00;52.90;;;47.38;;
16039;SDS011;8124;48.634;8.120;2022-08-19T12:24:07;52.30;;;46.75;;
16039;SDS011;8124;48.634;8.120;2022-08-19T12:29:10;53.72;;;48.13;;
16039;SDS011;8124;48.634;8.120;2022-08-19T12:34:13;53.15;;;47.65;;
16039;SDS011;8124;48.634;8.120;2022-08-19T12:39:17;53.80;;;47.92;;
16039;SDS011;8124;48.634;8.120;2022-08-19T12:44:21;53.05;;;47.58;;
16039;SDS011;8124;48.634;8.120;2022-08-19T12:49:30;52.85;;;47.42;;
16039;SDS011;8124;48.634;8.120;2022-08-19T12:54:56;50.50;;;45.40;;
16039;SDS011;8124;48.634;8.120;2022-08-19T13:00:00;51.65;;;46.50;;
16039;SDS011;8124;48.634;8.120;2022-08-19T13:05:08;52.47;;;47.17;;
16039;SDS011;8124;48.634;8.120;2022-08-19T13:10:15;52.25;;;46.75;;
16039;SDS011;8124;48.634;8.120;2022-08-19T13:15:27;52.72;;;47.33;;
16039;SDS011;8124;48.634;8.120;2022-08-19T13:20:32;53.40;;;48.00;;
16039;SDS011;8124;48.634;8.120;2022-08-19T13:25:38;50.45;;;45.45;;
16039;SDS011;8124;48.634;8.120;2022-08-19T13:30:41;51.90;;;46.70;;
16039;SDS011;8124;48.634;8.120;2022-08-19T13:36:01;50.47;;;45.38;;
16039;SDS011;8124;48.634;8.120;2022-08-19T13:41:10;51.00;;;45.90;;
16039;SDS011;8124;48.634;8.120;2022-08-19T13:46:15;51.08;;;45.85;;
16039;SDS011;8124;48.634;8.120;2022-08-19T13:51:18;49.65;;;44.65;;
16039;SDS011;8124;48.634;8.120;2022-08-19T13:56:22;49.63;;;44.63;;
16039;SDS011;8124;48.634;8.120;2022-08-19T14:01:26;49.63;;;44.63;;
16039;SDS011;8124;48.634;8.120;2022-08-19T14:06:30;49.00;;;43.90;;
16039;SDS011;8124;48.634;8.120;2022-08-19T14:11:35;48.70;;;43.72;;
16039;SDS011;8124;48.634;8.120;2022-08-19T14:16:38;49.17;;;44.17;;
16039;SDS011;8124;48.634;8.120;2022-08-19T14:21:41;50.70;;;45.55;;
16039;SDS011;8124;48.634;8.120;2022-08-19T14:26:45;50.97;;;45.67;;
16039;SDS011;8124;48.634;8.120;2022-08-19T14:31:48;50.75;;;45.60;;
16039;SDS011;8124;48.634;8.120;2022-08-19T14:36:51;51.55;;;45.97;;
16039;SDS011;8124;48.634;8.120;2022-08-19T14:41:56;50.78;;;45.78;;
16039;SDS011;8124;48.634;8.120;2022-08-19T14:47:01;50.72;;;45.65;;
16039;SDS011;8124;48.634;8.120;2022-08-19T14:52:04;51.67;;;46.38;;
16039;SDS011;8124;48.634;8.120;2022-08-19T14:57:10;50.47;;;45.40;;
16039;SDS011;8124;48.634;8.120;2022-08-19T15:02:13;51.38;;;46.08;;
16039;SDS011;8124;48.634;8.120;2022-08-19T15:07:35;51.72;;;46.47;;
16039;SDS011;8124;48.634;8.120;2022-08-19T15:12:40;51.20;;;46.00;;
16039;SDS011;8124;48.634;8.120;2022-08-19T15:17:44;50.58;;;45.53;;
16039;SDS011;8124;48.634;8.120;2022-08-19T15:22:47;50.85;;;45.55;;
16039;SDS011;8124;48.634;8.120;2022-08-19T15:27:52;50.13;;;45.13;;
16039;SDS011;8124;48.634;8.120;2022-08-19T15:32:56;49.90;;;44.80;;
16039;SDS011;8124;48.634;8.120;2022-08-19T15:38:00;50.58;;;45.20;;
16039;SDS011;8124;48.634;8.120;2022-08-19T15:43:04;49.53;;;44.63;;
16039;SDS011;8124;48.634;8.120;2022-08-19T15:48:07;49.22;;;44.33;;
16039;SDS011;8124;48.634;8.120;2022-08-19T15:53:10;49.88;;;44.53;;
16039;SDS011;8124;48.634;8.120;2022-08-19T15:58:14;49.55;;;44.55;;
16039;SDS011;8124;48.634;8.120;2022-08-19T16:03:35;50.00;;;44.90;;
16039;SDS011;8124;48.634;8.120;2022-08-19T16:08:56;50.22;;;45.17;;
16039;SDS011;8124;48.634;8.120;2022-08-19T16:14:03;50.15;;;45.03;;
16039;SDS011;8124;48.634;8.120;2022-08-19T16:19:09;50.70;;;45.72;;
16039;SDS011;8124;48.634;8.120;2022-08-19T16:24:16;51.15;;;45.85;;
16039;SDS011;8124;48.634;8.120;2022-08-19T16:29:25;50.38;;;45.35;;
16039;SDS011;8124;48.634;8.120;2022-08-19T16:34:39;50.30;;;45.30;;
16039;SDS011;8124;48.634;8.120;2022-08-19T16:39:43;50.67;;;44.97;;
16039;SDS011;8124;48.634;8.120;2022-08-19T16:44:48;50.33;;;45.03;;
16039;SDS011;8124;48.634;8.120;2022-08-19T16:49:51;49.83;;;44.72;;
16039;SDS011;8124;48.634;8.120;2022-08-19T16:54:55;49.33;;;44.08;;
16039;SDS011;8124;48.634;8.120;2022-08-19T17:00:00;49.38;;;43.72;;
16039;SDS011;8124;48.634;8.120;2022-08-19T17:05:08;48.35;;;43.35;;
16039;SDS011;8124;48.634;8.120;2022-08-19T17:10:11;48.17;;;43.38;;
16039;SDS011;8124;48.634;8.120;2022-08-19T17:15:16;47.40;;;42.58;;
16039;SDS011;8124;48.634;8.120;2022-08-19T17:20:19;47.35;;;42.45;;
16039;SDS011;8124;48.634;8.120;2022-08-19T17:25:23;47.55;;;42.75;;
16039;SDS011;8124;48.634;8.120;2022-08-19T17:30:28;47.17;;;42.17;;
16039;SDS011;8124;48.634;8.120;2022-08-19T17:35:32;47.20;;;42.30;;
16039;SDS011;8124;48.634;8.120;2022-08-19T17:40:36;47.03;;;42.28;;
16039;SDS011;8124;48.634;8.120;2022-08-19T17:46:02;46.75;;;42.03;;
16039;SDS011;8124;48.634;8.120;2022-08-19T17:51:12;47.28;;;42.50;;
16039;SDS011;8124;48.634;8.120;2022-08-19T17:56:22;46.55;;;41.85;;
16039;SDS011;8124;48.634;8.120;2022-08-19T18:01:27;46.35;;;41.60;;
16039;SDS011;8124;48.634;8.120;2022-08-19T18:06:55;46.92;;;41.92;;
16039;SDS011;8124;48.634;8.120;2022-08-19T18:12:00;46.47;;;41.67;;
16039;SDS011;8124;48.634;8.120;2022-08-19T18:17:11;46.28;;;41.67;;
16039;SDS011;8124;48.634;8.120;2022-08-19T18:22:55;46.17;;;41.47;;
16039;SDS011;8124;48.634;8.120;2022-08-19T18:28:19;45.97;;;41.17;;
16039;SDS011;8124;48.634;8.120;2022-08-19T18:33:25;46.10;;;41.47;;
16039;SDS011;8124;48.634;8.120;2022-08-19T18:38:28;45.85;;;41.25;;
16039;SDS011;8124;48.634;8.120;2022-08-19T18:43:51;45.20;;;40.70;;
16039;SDS011;8124;48.634;8.120;2022-08-19T18:49:14;46.42;;;41.85;;
16039;SDS011;8124;48.634;8.120;2022-08-19T18:54:22;47.50;;;42.80;;
16039;SDS011;8124;48.634;8.120;2022-08-19T18:59:27;47.97;;;43.08;;
16039;SDS011;8124;48.634;8.120;2022-08-19T19:04:32;47.40;;;42.67;;
16039;SDS011;8124;48.634;8.120;2022-08-19T19:09:38;47.90;;;43.00;;
16039;SDS011;8124;48.634;8.120;2022-08-19T19:14:41;48.25;;;43.45;;
16039;SDS011;8124;48.634;8.120;2022-08-19T19:19:51;48.70;;;43.50;;
16039;SDS011;8124;48.634;8.120;2022-08-19T19:24:56;48.15;;;43.35;;
16039;SDS011;8124;48.634;8.120;2022-08-19T19:30:00;49.63;;;44.50;;
16039;SDS011;8124;48.634;8.120;2022-08-19T19:35:04;49.08;;;44.10;;
16039;SDS011;8124;48.634;8.120;2022-08-19T19:40:09;49.10;;;44.20;;
16039;SDS011;8124;48.634;8.120;2022-08-19T19:45:14;50.15;;;45.15;;
16039;SDS011;8124;48.634;8.120;2022-08-19T19:50:19;48.78;;;43.72;;
16039;SDS011;8124;48.634;8.120;2022-08-19T19:55:24;48.22;;;43.42;;
16039;SDS011;8124;48.634;8.120;2022-08-19T20:00:29;47.70;;;42.90;;
16039;SDS011;8124;48.634;8.120;2022-08-19T20:05:39;47.22;;;42.45;;
16039;SDS011;8124;48.634;8.120;2022-08-19T20:10:42;46.90;;;42.17;;
16039;SDS011;8124;48.634;8.120;2022-08-19T20:15:45;47.08;;;42.33;;
16039;SDS011;8124;48.634;8.120;2022-08-19T20:20:50;46.58;;;41.88;;
16039;SDS011;8124;48.634;8.120;2022-08-19T20:25:54;47.38;;;42.30;;
16039;SDS011;8124;48.634;8.120;2022-08-19T20:30:57;46.47;;;41.88;;
16039;SDS011;8124;48.634;8.120;2022-08-19T20:36:02;45.70;;;40.90;;
16039;SDS011;8124;48.634;8.120;2022-08-19T20:41:06;45.53;;;40.78;;
16039;SDS011;8124;48.634;8.120;2022-08-19T20:46:10;45.45;;;40.75;;
16039;SDS011;8124;48.634;8.120;2022-08-19T20:51:16;45.03;;;40.53;;
16039;SDS011;8124;48.634;8.120;2022-08-19T20:56:19;45.00;;;40.45;;
16039;SDS011;8124;48.634;8.120;2022-08-19T21:01:22;44.65;;;40.15;;
16039;SDS011;8124;48.634;8.120;2022-08-19T21:06:26;44.22;;;39.72;;
16039;SDS011;8124;48.634;8.120;2022-08-19T21:11:30;44.25;;;39.78;;
16039;SDS011;8124;48.634;8.120;2022-08-19T21:16:33;44.33;;;39.83;;
16039;SDS011;8124;48.634;8.120;2022-08-19T21:21:37;43.80;;;39.35;;
16039;SDS011;8124;48.634;8.120;2022-08-19T21:26:40;44.33;;;39.83;;
16039;SDS011;8124;48.634;8.120;2022-08-19T21:31:43;43.72;;;39.03;;
16039;SDS011;8124;48.634;8.120;2022-08-19T21:36:47;43.60;;;39.20;;
16039;SDS011;8124;48.634;8.120;2022-08-19T21:41:50;43.88;;;39.28;;
16039;SDS011;8124;48.634;8.120;2022-08-19T21:46:53;43.72;;;39.25;;
16039;SDS011;8124;48.634;8.120;2022-08-19T21:51:58;43.25;;;38.85;;
16039;SDS011;8124;48.634;8.120;2022-08-19T21:57:02;43.65;;;39.20;;
16039;SDS011;8124;48.634;8.120;2022-08-19T22:02:11;43.95;;;39.35;;
16039;SDS011;8124;48.634;8.120;2022-08-19T22:07:23;43.53;;;39.13;;
16039;SDS011;8124;48.634;8.120;2022-08-19T22:12:27;44.10;;;39.65;;
16039;SDS011;8124;48.634;8.120;2022-08-19T22:17:32;43.60;;;39.10;;
16039;SDS011;8124;48.634;8.120;2022-08-19T22:22:37;44.15;;;39.67;;
16039;SDS011;8124;48.634;8.120;2022-08-19T22:27:46;43.33;;;38.83;;
16039;SDS011;8124;48.634;8.120;2022-08-19T22:32:50;44.22;;;39.72;;
16039;SDS011;8124;48.634;8.120;2022-08-19T22:37:58;43.58;;;39.13;;
16039;SDS011;8124;48.634;8.120;2022-08-19T22:43:02;43.10;;;38.70;;
16039;SDS011;8124;48.634;8.120;2022-08-19T22:48:08;42.88;;;38.47;;
16039;SDS011;8124;48.634;8.120;2022-08-19T22:53:14;43.33;;;38.92;;
16039;SDS011;8124;48.634;8.120;2022-08-19T22:58:16;43.10;;;38.70;;
16039;SDS011;8124;48.634;8.120;2022-08-19T23:03:28;43.42;;;38.97;;
16039;SDS011;8124;48.634;8.120;2022-08-19T23:08:32;43.25;;;38.85;;
16039;SDS011;8124;48.634;8.120;2022-08-19T23:13:39;43.25;;;38.85;;
16039;SDS011;8124;48.634;8.120;2022-08-19T23:18:42;42.90;;;38.47;;
16039;SDS011;8124;48.634;8.120;2022-08-19T23:23:47;43.50;;;38.90;;
16039;SDS011;8124;48.634;8.120;2022-08-19T23:28:51;43.03;;;38.65;;
16039;SDS011;8124;48.634;8.120;2022-08-19T23:34:11;43.08;;;38.67;;
16039;SDS011;8124;48.634;8.120;2022-08-19T23:39:15;43.03;;;38.55;;
16039;SDS011;8124;48.634;8.120;2022-08-19T23:44:19;43.50;;;39.08;;
16039;SDS011;8124;48.634;8.120;2022-08-19T23:49:23;43.95;;;39.35;;
16039;SDS011;8124;48.634;8.120;2022-08-19T23:54:27;43.40;;;38.85;;
16039;SDS011;8124;48.634;8.120;2022-08-19T23:59:44;42.78;;;38.30;;
